Active alerts

Hennepin
  Details for Hennepin River Flood Warning


weather webcam more information weather webcam


Thunder radar more information blitzortung!


Rain radar more information rain snow radar


Visit our other weather sites:

Template documentation
and downloads

And another site


Nearby METAR Reports

   
EBBR - Brussels International Airport, Belgium
Distance from station: W 9 mi
Updated: Jun 24 2018 9:20 am
Clear  
Clear  
   Wind: NNE 6.9 mph
Wind: NNE 6.9 mph
Temperature: 68°F
Dew Point: 46.4°F
Humidity: 46%
Barometer: 30.24 inHg
Visibility: More than 6 mi
Cloud details: Clear
EBBR 241420Z 02006KT 310V060 CAVOK 20/08 Q1024 NOSIG
EBBE - Beauvechain (Bevekom), Belgium
Distance from station: SSE 10 mi
Updated: Jun 24 2018 9:25 am
Mostly Cloudy  
Mostly Cloudy  
   Wind: North 6.9 mph
Wind: North 6.9 mph
Temperature: 68°F
Dew Point: 46.4°F
Humidity: 46%
Barometer: 30.21 inHg
Clouds: Mostly Cloudy
Visibility: More than 6 mi
Cloud details: Few Clouds 4000 ft,
Mostly Cloudy 20000 ft
EBBE 241425Z 36006KT 9999 FEW040 BKN200 20/08 Q1023 BLU BLU
EBDT - Schaffen, Belgium
Distance from station: ENE 18 mi
Updated: Jun 24 2018 9:25 am
Mostly Cloudy  
Mostly Cloudy  
   Wind: North 10.4 mph
Wind: North 10.4 mph
Temperature: 68°F
Dew Point: 48.2°F
Humidity: 49%
Barometer: 30.21 inHg
Clouds: Mostly Cloudy
Visibility: More than 6 mi
Cloud details: Mostly Cloudy 4500 ft
EBDT 241425Z AUTO 01009KT 9999 BKN045/// 20/09 Q1023 BLU
EBAW - Antwerp/Deurne, Belgium
Distance from station: NNW 23 mi
Updated: Jun 24 2018 9:20 am
Mostly Cloudy  
Mostly Cloudy  
   Wind: North 9.2 mph
Wind: North 9.2 mph
Temperature: 68°F
Dew Point: 50°F
Humidity: 53%
Barometer: 30.24 inHg
Clouds: Mostly Cloudy
Visibility: More than 6 mi
Cloud details: Mostly Cloudy 4200 ft
EBAW 241420Z 35008KT 310V040 9999 BKN042 20/10 Q1024 NOSIG
EBCI - Charleroi/Gosselies, Belgium
Distance from station: SSW 32 mi
Updated: Jun 24 2018 9:20 am
Few Clouds  
Few Clouds  
   Wind: North 8.1 mph
Wind: North 8.1 mph
Temperature: 66.2°F
Dew Point: 46.4°F
Humidity: 49%
Barometer: 30.24 inHg
Clouds: Few Clouds
Visibility: More than 6 mi
Cloud details: Few Clouds 4000 ft
EBCI 241420Z 36007KT 310V050 9999 FEW040 19/08 Q1024 NOSIG
EBLG - Bierset/Liege, Belgium
Distance from station: ESE 38 mi
Updated: Jun 24 2018 9:20 am
Partly Cloudy  
Partly Cloudy  
   Wind: NNW 6.9 mph
Wind: NNW 6.9 mph
Temperature: 64.4°F
Dew Point: 46.4°F
Humidity: 52%
Barometer: 30.21 inHg
Clouds: Partly Cloudy
Visibility: More than 6 mi
Cloud details: Partly Cloudy 4000 ft
EBLG 241420Z 33006KT 290V030 9999 SCT040 18/08 Q1023 NOSIG

Script developed by  Saratoga-weather.org Adapted for the template by  Weerstation Leuven

You find our weather info also at:

Weather Underground

Midwestern Weather Network

Citizen Weather Observer Program (CWOP)

HAMweather, WeatherForYou, PWS Weather

Equipment we use:

Weather-station
Davis VP2

Weather-program
Cumulus

Davis VP2

Cumulus